Tolmachevo Airport
UNNT : now visible

Airfield :











YOU CAN JOIN US ON...

 
LOGIN :

Register | Disclaimer

   EN    FR    IT 

 









Legend :    VFR   Marginal VFR   IFR   Intensive IFR   Very Intensive IFR
Visi :
Ceiling :
>= 8 km
>= 3000ft
5 to 8 km
1000 to 3000 ft
1500m to 5 km
500 to 1000 ft
800 to 1500m
200 to 500 ft
< 800m
< 200 ft
Symbols :   Thunderstorms  Fog  Heavy snow  Heavy precipitations  Wind > 20 kt






- Airport Elevation : 365 ft
- IATA code : OVB


UNNT - Tolmachevo

CURRENT METAR :
  • 271130Z 16004MPS 9999 SCT039 M03/M04 Q1004 R25/590244 R16/591032 NOSIG RMK QFE743/0991

EXPIRED METARs :
  • 271100Z 18006MPS 9999 SCT039 M01/M03 Q1004 R25/590244 R16/591032 NOSIG RMK QFE743/0991
  • 271030Z 18005MPS 9000 BKN035 M01/M02 Q1003 R25/590244 R16/591032 NOSIG RMK QFE743/0990
  • 271000Z 17006MPS 5000 -SN BKN012 OVC029 M02/M02 Q1003 R25/590244 R16/591032 NOSIG RMK QFE742/0990
  • 270930Z 17006MPS 8000 -SN BKN012 OVC029 M02/M03 Q1003 R07/590537 R16/591032 NOSIG RMK QFE742/0990
  • 270900Z 17006MPS 4400 -SN BKN007 OVC029 M02/M03 Q1002 R07/590537 R16/591032 NOSIG RMK QFE742/0989
  • 270830Z 15006MPS 1600 1000E R07/1800U SN OVC007 M03/M04 Q1002 R07/590336 R16/550345 NOSIG RMK QFE742/0989

TAF TAF UNNT
Valid from the 27 at 12:00 until the 28 at 12:00 UTC


271100Z 2712/2812 18007G16MPS 8000 -SHSNRA DRSN BKN016CB
TEMPO 2712/2806 1500 SHSN BLSN BKN010CB
BECMG 2719/2722 26008G18MPS
TEMPO 2806/2812 3000 -SHSNRA BKN010CB



MET'MAP, your aeronautical weather chart ! - Copyright ORBIFLY December 2007 - Disclaimer

ORBIFLY MET'MAP TEAM :

Programming & Development : Alexandra Zaïnal
Concept & original design : Baudouin d'Aumeries
Assistance for programming : Marc-Olivier Méhu
Technical & hardware support : Manuel Goepfert

Contact : metmap@orbifly.com




SOURCES & CREDITS :

   NOAA       Earth
Advisory